Impacts METAR Board
IDs:

KFLL - Ft Lauderdale-Hollyw, FL, US

Updated at: 1100 UTC 23 May 2018
Potential Impact None Slight Moderate High
Time 22/23Z 23/00Z 23/01Z 23/02Z 23/03Z 23/04Z 23/05Z 23/06Z 23/07Z 23/08Z 23/09Z 23/10Z 23/11Z
Temp79 79 78 78 78 78 78 78 77 78 77 77 77
Dewpt71 73 73 73 73 73 73 73 74 74 74 74 74
Altim30.03 30.04 30.05 30.06 30.06 30.06 30.06 30.05 30.04 30.03 30.04 30.04 30.05
VIS10 10 10 10 10 10 10 10 10 10 10 10 10
CIG110 120 120 -- -- -- -- -- -- -- 48 250 --
CoverBKNBKNBKNSCTFEWSCTFEWSCTSCTSCTBKNBKNSCT
FltCatVFRVFRVFRVFRVFRVFRVFRVFRVFRVFRVFRVFRVFR
WX--------------------------
WDir110110110110110110110110120120110110110
WSpd12 11 12 13 11 11 9 9 11 11 9 9 10
WGst-- -- -- -- -- -- -- -- -- -- -- -- --
Raw hourly METARs
KFLL 222253Z 11012KT 10SM FEW030 SCT070 BKN110 26/22 A3003 RMK AO2 SLP170 T02610217
KFLL 222353Z COR 11011KT 10SM FEW022 SCT040 BKN120 26/23 A3004 RMK AO2 SLP173 T02610228 10278 20261 53002
KFLL 230053Z 11012KT 10SM FEW023 SCT042 BKN120 26/23 A3005 RMK AO2 SLP176 T02560228
KFLL 230153Z 11013KT 10SM FEW038 SCT120 26/23 A3006 RMK AO2 SLP178 T02560228
KFLL 230253Z 11011KT 10SM FEW024 FEW120 26/23 A3006 RMK AO2 SLP178 T02560228 51005
KFLL 230353Z 11011KT 10SM FEW027 SCT100 26/23 A3006 RMK AO2 SLP178 T02560228
KFLL 230453Z 11009KT 10SM FEW025 26/23 A3006 RMK AO2 SLP178 T02560228 402780256
KFLL 230553Z 11009KT 10SM SCT023 SCT037 26/23 A3005 RMK AO2 SLP175 T02560228 10261 20250 58003
KFLL 230653Z 12011KT 10SM SCT023 25/23 A3004 RMK AO2 SLP170 T02500233
KFLL 230753Z 12011KT 10SM SCT021 SCT060 26/23 A3003 RMK AO2 SLP169 T02560233
KFLL 230853Z 11009KT 10SM SCT024 BKN048 BKN070 25/23 A3004 RMK AO2 RAB21E50 SLP170 P0014 60014 T02500233 55004
KFLL 230953Z 11009KT 10SM FEW023 SCT050 BKN250 25/23 A3004 RMK AO2 SLP171 T02500233
KFLL 231053Z 11010KT 10SM FEW021 SCT100 SCT250 25/23 A3005 RMK AO2 SLP177 T02500233



Page loaded:  11:00 UTC  |   04:00 AM Pacific  |   05:00 AM Mountain  |   06:00 AM Central  |   07:00 AM Eastern

 

ADVISORIES

FORECASTS

FORECASTS

OBSERVATIONS

USER TOOLS

ABOUT US